Time;durP1;ratioP1;P1;durP2;ratioP2;P2;SDS_P1;SDS_P2;PMS_P1;PMS_P2;Temp;Humidity;BMP_temperature;BMP_pressure;BME280_temperature;BME280_humidity;BME280_pressure;Samples;Min_cycle;Max_cycle;Signal;HPM_P1;HPM_P2
2022/05/30 00:02:07;;;;;;;;;;;12.00;1.00;;;;;;5061515;28;20001;-81
2022/05/30 00:04:35;;;;;;;;;;;12.00;99.90;;;;;;5042406;28;19913;-81
2022/05/30 00:07:00;;;;;;;;;;;12.00;99.90;;;;;;5060656;28;19980;-81
2022/05/30 00:09:26;;;;;;;;;;;12.00;99.90;;;;;;5060986;28;19909;-82
2022/05/30 00:11:51;;;;;;;;;;;11.90;1.00;;;;;;5060576;28;19913;-81
2022/05/30 00:14:17;;;;;;;;;;;11.90;1.00;;;;;;5042608;28;19912;-81
2022/05/30 00:16:42;;;;;;;;;;;11.90;1.00;;;;;;5045919;28;19935;-81
2022/05/30 00:19:08;;;;;;;;;;;11.90;1.00;;;;;;5047038;28;19977;-81
2022/05/30 00:21:33;;;;;;;;;;;11.90;99.90;;;;;;5047381;28;19909;-81
2022/05/30 00:23:59;;;;;;;;;;;11.90;1.00;;;;;;5064729;28;19948;-81
2022/05/30 00:26:24;;;;;;;;;;;11.90;1.00;;;;;;5046212;28;20400;-81
2022/05/30 00:28:50;;;;;;;;;;;11.90;99.90;;;;;;5046305;28;20059;-82
2022/05/30 00:31:16;;;;;;;;;;;11.90;1.00;;;;;;5046684;28;19920;-81
2022/05/30 00:33:43;;;;;;;;;;;11.90;1.00;;;;;;5064660;28;19913;-81
2022/05/30 00:36:08;;;;;;;;;;;11.90;1.00;;;;;;5065308;28;19928;-81
2022/05/30 00:38:34;;;;;;;;;;;11.90;1.00;;;;;;5056262;28;20442;-81
2022/05/30 00:40:59;;;;;;;;;;;11.80;1.00;;;;;;5067680;28;19908;-82
2022/05/30 00:43:27;;;;;;;;;;;11.80;1.00;;;;;;5046359;28;20285;-81
2022/05/30 00:45:54;;;;;;;;;;;11.80;1.00;;;;;;5064115;28;19928;-81
2022/05/30 00:48:21;;;;;;;;;;;11.80;9.30;;;;;;5063938;28;19968;-81
2022/05/30 00:50:49;;;;;;;;;;;11.80;8.40;;;;;;5064433;28;19909;-81
2022/05/30 00:53:14;;;;;;;;;;;11.70;99.90;;;;;;5046264;28;20316;-81
2022/05/30 00:55:41;;;;;;;;;;;11.70;99.90;;;;;;5046030;28;19959;-81
2022/05/30 00:58:08;;;;;;;;;;;11.70;99.90;;;;;;5063165;28;19912;-81
2022/05/30 01:00:34;;;;;;;;;;;11.70;99.90;;;;;;5046058;28;19916;-81
2022/05/30 01:08:30;;;;;;;;;;;11.60;99.90;;;;;;5064017;28;19916;-81
2022/05/30 01:10:56;;;;;;;;;;;11.60;99.90;;;;;;5062810;28;19909;-81
2022/05/30 01:13:23;;;;;;;;;;;11.60;99.90;;;;;;5062800;28;19913;-81
2022/05/30 01:15:49;;;;;;;;;;;11.50;99.90;;;;;;5045220;28;20542;-81
2022/05/30 01:18:14;;;;;;;;;;;11.50;1.00;;;;;;5062997;28;20003;-81
2022/05/30 01:20:52;;;;;;;;;;;11.40;1.00;;;;;;5044989;28;20281;-81
2022/05/30 01:23:31;;;;;;;;;;;11.40;1.00;;;;;;5063295;28;20373;-81
2022/05/30 01:26:00;;;;;;;;;;;11.40;1.00;;;;;;5046125;28;19916;-81
2022/05/30 01:28:28;;;;;;;;;;;11.30;1.00;;;;;;5062699;28;19931;-81
2022/05/30 01:30:54;;;;;;;;;;;11.30;1.00;;;;;;5044963;28;19913;-81
2022/05/30 01:33:22;;;;;;;;;;;11.30;1.00;;;;;;5044634;28;19908;-81
2022/05/30 01:35:47;;;;;;;;;;;11.30;1.00;;;;;;5062599;28;20576;-81
2022/05/30 01:38:13;;;;;;;;;;;11.30;15.30;;;;;;5061698;28;19913;-81
2022/05/30 01:40:38;;;;;;;;;;;11.30;1.00;;;;;;5044880;28;19909;-81
2022/05/30 01:43:03;;;;;;;;;;;11.30;4.00;;;;;;5044730;28;19908;-81
2022/05/30 01:45:29;;;;;;;;;;;11.40;1.00;;;;;;5062048;28;19915;-81
2022/05/30 01:47:54;;;;;;;;;;;11.40;1.00;;;;;;5044548;28;19909;-81
2022/05/30 01:50:24;;;;;;;;;;;11.40;1.00;;;;;;5044173;28;19916;-81
2022/05/30 01:52:50;;;;;;;;;;;11.40;1.00;;;;;;5044954;28;20305;-81
2022/05/30 01:55:15;;;;;;;;;;;11.40;1.00;;;;;;5062035;28;19962;-81
2022/05/30 01:57:41;;;;;;;;;;;11.40;1.00;;;;;;5043861;28;20102;-81
2022/05/30 02:00:07;;;;;;;;;;;11.50;1.00;;;;;;5062094;28;19909;-81
2022/05/30 02:02:34;;;;;;;;;;;11.50;1.00;;;;;;5044156;28;19915;-81
2022/05/30 02:04:59;;;;;;;;;;;11.40;1.00;;;;;;5044186;28;19916;-81
2022/05/30 02:07:25;;;;;;;;;;;11.50;1.00;;;;;;5044225;28;19913;-81
2022/05/30 02:09:50;;;;;;;;;;;11.50;1.00;;;;;;5062204;28;19931;-81
2022/05/30 02:12:16;;;;;;;;;;;11.50;1.00;;;;;;5044399;28;19916;-81
2022/05/30 02:14:43;;;;;;;;;;;11.50;1.00;;;;;;5061598;28;19913;-81
2022/05/30 02:17:09;;;;;;;;;;;11.50;1.00;;;;;;5061252;28;19966;-81
2022/05/30 02:19:36;;;;;;;;;;;11.50;1.00;;;;;;5061444;28;20319;-81
2022/05/30 02:22:02;;;;;;;;;;;11.40;1.00;;;;;;5043832;28;20369;-81
2022/05/30 02:24:28;;;;;;;;;;;11.40;1.00;;;;;;5061083;28;19956;-81
2022/05/30 02:26:53;;;;;;;;;;;11.40;1.00;;;;;;5043718;28;19913;-81
2022/05/30 02:29:19;;;;;;;;;;;11.40;1.00;;;;;;5043780;28;19919;-81
2022/05/30 02:31:44;;;;;;;;;;;11.40;1.00;;;;;;5043827;28;20296;-81
2022/05/30 02:36:55;;;;;;;;;;;11.40;10.00;;;;;;5061705;28;19951;-81
2022/05/30 02:39:21;;;;;;;;;;;11.40;86.20;;;;;;5043031;28;20286;-81
2022/05/30 02:41:47;;;;;;;;;;;11.40;72.80;;;;;;5062163;28;19908;-81
2022/05/30 02:44:14;;;;;;;;;;;11.40;95.60;;;;;;5063034;28;19952;-81
2022/05/30 02:46:39;;;;;;;;;;;11.40;68.60;;;;;;5062536;28;19979;-81
2022/05/30 02:49:05;;;;;;;;;;;11.40;99.90;;;;;;5062833;28;19916;-83
2022/05/30 02:51:30;;;;;;;;;;;11.40;99.90;;;;;;5045182;28;19908;-81
2022/05/30 02:53:56;;;;;;;;;;;11.40;99.90;;;;;;5063081;28;19916;-81
2022/05/30 02:56:22;;;;;;;;;;;11.40;99.90;;;;;;5062891;28;20428;-81
2022/05/30 02:58:47;;;;;;;;;;;11.40;99.90;;;;;;5044944;28;19912;-81
2022/05/30 03:01:13;;;;;;;;;;;11.30;99.90;;;;;;5062705;28;19917;-81
2022/05/30 03:03:39;;;;;;;;;;;11.30;93.00;;;;;;5062713;28;19908;-81
2022/05/30 03:06:07;;;;;;;;;;;11.30;66.90;;;;;;5062413;28;19916;-81
2022/05/30 03:08:32;;;;;;;;;;;11.30;45.40;;;;;;5044869;28;19944;-81
2022/05/30 03:10:58;;;;;;;;;;;11.30;37.50;;;;;;5061827;28;20361;-82
2022/05/30 03:13:23;;;;;;;;;;;11.30;52.50;;;;;;5044261;28;19908;-81
2022/05/30 03:15:49;;;;;;;;;;;11.20;1.00;;;;;;5061962;28;19940;-81
2022/05/30 03:18:14;;;;;;;;;;;11.20;13.40;;;;;;5061705;28;19920;-81
2022/05/30 03:20:40;;;;;;;;;;;11.20;19.80;;;;;;5061373;28;19909;-81
2022/05/30 03:23:06;;;;;;;;;;;11.10;32.00;;;;;;5061791;28;19956;-81
2022/05/30 03:25:31;;;;;;;;;;;11.10;71.30;;;;;;5043266;28;19948;-81
2022/05/30 03:27:57;;;;;;;;;;;11.00;45.60;;;;;;5061568;28;19967;-81
2022/05/30 03:30:22;;;;;;;;;;;11.00;46.70;;;;;;5061791;28;19909;-81
2022/05/30 03:32:48;;;;;;;;;;;11.00;30.30;;;;;;5061910;28;20357;-81
2022/05/30 03:35:14;;;;;;;;;;;10.90;71.80;;;;;;5043244;28;20357;-81
2022/05/30 03:37:40;;;;;;;;;;;10.90;50.20;;;;;;5043281;28;19988;-81
2022/05/30 03:40:07;;;;;;;;;;;10.90;97.80;;;;;;5052864;28;19913;-81
2022/05/30 03:42:33;;;;;;;;;;;10.80;99.90;;;;;;5063114;28;19908;-81
2022/05/30 03:44:58;;;;;;;;;;;10.80;99.90;;;;;;5080668;28;19920;-81
2022/05/30 03:47:24;;;;;;;;;;;10.80;99.90;;;;;;5080198;28;19930;-81
2022/05/30 03:49:49;;;;;;;;;;;10.80;99.90;;;;;;5061680;28;19909;-81
2022/05/30 03:52:15;;;;;;;;;;;10.80;99.90;;;;;;5080077;28;20284;-82
2022/05/30 03:54:41;;;;;;;;;;;10.80;99.90;;;;;;5061849;28;19954;-81
2022/05/30 03:57:06;;;;;;;;;;;10.80;99.90;;;;;;5061589;28;20510;-81
2022/05/30 03:59:32;;;;;;;;;;;10.80;99.90;;;;;;5087501;28;19908;-81
2022/05/30 04:01:57;;;;;;;;;;;10.90;99.90;;;;;;5067757;28;20344;-82
2022/05/30 04:04:23;;;;;;;;;;;10.90;99.90;;;;;;5080357;28;19951;-82
2022/05/30 04:06:48;;;;;;;;;;;11.00;99.90;;;;;;5080195;28;20295;-81
2022/05/30 04:09:14;;;;;;;;;;;11.00;99.90;;;;;;5081125;28;19915;-81
2022/05/30 04:11:39;;;;;;;;;;;11.00;99.90;;;;;;5062687;28;20436;-82
2022/05/30 04:14:05;;;;;;;;;;;11.10;57.50;;;;;;5061649;28;20376;-82
2022/05/30 04:16:30;;;;;;;;;;;11.20;23.60;;;;;;5080380;28;19939;-81
2022/05/30 04:18:55;;;;;;;;;;;11.20;1.00;;;;;;5062149;28;19913;-81
2022/05/30 04:21:22;;;;;;;;;;;11.20;1.00;;;;;;5080555;28;19955;-82
2022/05/30 04:23:47;;;;;;;;;;;11.30;1.00;;;;;;5061527;28;19923;-82
2022/05/30 04:26:14;;;;;;;;;;;11.30;1.00;;;;;;5079693;28;19916;-81
2022/05/30 04:28:39;;;;;;;;;;;11.40;1.00;;;;;;5062206;28;19909;-81
2022/05/30 04:31:06;;;;;;;;;;;11.40;99.90;;;;;;5080577;28;20445;-81
2022/05/30 04:33:33;;;;;;;;;;;11.50;99.90;;;;;;5062261;28;20015;-81
2022/05/30 04:35:58;;;;;;;;;;;11.50;13.60;;;;;;5080106;28;19908;-81
2022/05/30 04:38:24;;;;;;;;;;;11.60;1.00;;;;;;5061764;28;20364;-82
2022/05/30 04:40:49;;;;;;;;;;;11.70;1.00;;;;;;5079609;28;20007;-81
2022/05/30 04:43:15;;;;;;;;;;;11.70;99.90;;;;;;5079636;28;20388;-82
2022/05/30 04:45:40;;;;;;;;;;;11.80;27.30;;;;;;5061631;28;20047;-81
2022/05/30 04:48:06;;;;;;;;;;;11.90;1.00;;;;;;5061304;28;20029;-82
2022/05/30 04:50:31;;;;;;;;;;;12.00;99.90;;;;;;5079522;28;19912;-81
2022/05/30 04:52:57;;;;;;;;;;;12.00;99.90;;;;;;5079855;28;19909;-82
2022/05/30 04:55:22;;;;;;;;;;;12.10;1.00;;;;;;5079189;28;20348;-81
2022/05/30 04:57:48;;;;;;;;;;;12.20;99.90;;;;;;5080119;28;19912;-82
2022/05/30 05:00:17;;;;;;;;;;;12.20;1.00;;;;;;5079331;28;19923;-81
2022/05/30 05:02:42;;;;;;;;;;;12.30;99.90;;;;;;5082805;28;19908;-82
2022/05/30 05:05:09;;;;;;;;;;;12.40;99.90;;;;;;5083105;28;19916;-82
2022/05/30 05:07:53;;;;;;;;;;;12.50;1.00;;;;;;5081983;28;19908;-82
2022/05/30 05:10:46;;;;;;;;;;;12.50;99.90;;;;;;5064818;28;19913;-81
2022/05/30 05:13:12;;;;;;;;;;;12.60;99.90;;;;;;5082652;28;19912;-81
2022/05/30 05:15:37;;;;;;;;;;;12.70;1.00;;;;;;5064668;28;20015;-82
2022/05/30 05:18:03;;;;;;;;;;;12.70;1.00;;;;;;5065145;28;19935;-81
2022/05/30 05:20:29;;;;;;;;;;;12.90;1.00;;;;;;5064148;28;20380;-81
2022/05/30 05:22:54;;;;;;;;;;;13.00;99.90;;;;;;5083077;28;19961;-82
2022/05/30 05:25:20;;;;;;;;;;;13.10;99.90;;;;;;5082497;28;19916;-82
2022/05/30 05:27:48;;;;;;;;;;;13.20;78.00;;;;;;5063902;28;19909;-82
2022/05/30 05:30:13;;;;;;;;;;;13.30;1.00;;;;;;5082738;28;19908;-82
2022/05/30 05:32:39;;;;;;;;;;;13.40;1.00;;;;;;5082969;28;19908;-81
2022/05/30 05:35:05;;;;;;;;;;;13.50;1.00;;;;;;5064423;28;19922;-82
2022/05/30 05:37:32;;;;;;;;;;;13.70;1.00;;;;;;5081587;28;19920;-82
2022/05/30 05:39:58;;;;;;;;;;;14.00;99.90;;;;;;5082359;28;19917;-82
2022/05/30 05:42:23;;;;;;;;;;;14.20;99.90;;;;;;5064744;28;19968;-82
2022/05/30 05:44:49;;;;;;;;;;;14.40;99.90;;;;;;5064488;28;19916;-82
2022/05/30 05:47:14;;;;;;;;;;;14.60;99.90;;;;;;5064397;28;20284;-82
2022/05/30 05:49:40;;;;;;;;;;;14.80;94.80;;;;;;5063924;28;19979;-82
2022/05/30 05:52:05;;;;;;;;;;;14.90;17.00;;;;;;5064174;28;19908;-82
2022/05/30 05:54:31;;;;;;;;;;;15.10;1.00;;;;;;5082435;28;19952;-82
2022/05/30 05:56:57;;;;;;;;;;;15.20;1.00;;;;;;5063868;28;19965;-82
2022/05/30 05:59:23;;;;;;;;;;;15.20;1.00;;;;;;5082303;28;19920;-82
2022/05/30 06:01:48;;;;;;;;;;;15.20;1.00;;;;;;5082010;28;19908;-82
2022/05/30 06:04:14;;;;;;;;;;;15.20;1.00;;;;;;5064186;28;19976;-82
2022/05/30 06:06:39;;;;;;;;;;;15.20;1.00;;;;;;5063814;28;19909;-82
2022/05/30 06:09:06;;;;;;;;;;;15.30;1.00;;;;;;5064209;28;19980;-82
2022/05/30 06:11:32;;;;;;;;;;;15.30;1.00;;;;;;5081501;28;19912;-82
2022/05/30 06:13:57;;;;;;;;;;;15.50;1.00;;;;;;5062822;28;19971;-82
2022/05/30 06:16:30;;;;;;;;;;;15.60;1.00;;;;;;5063798;28;19908;-82
2022/05/30 06:18:57;;;;;;;;;;;15.80;1.00;;;;;;5062977;28;19912;-82
2022/05/30 06:21:24;;;;;;;;;;;16.00;1.00;;;;;;5063775;28;19916;-83
2022/05/30 06:23:50;;;;;;;;;;;16.00;1.00;;;;;;5063372;28;20288;-82
2022/05/30 06:26:16;;;;;;;;;;;16.10;1.00;;;;;;5081380;28;20009;-81
2022/05/30 06:28:44;;;;;;;;;;;16.10;1.00;;;;;;5063596;28;19908;-82
2022/05/30 06:31:10;;;;;;;;;;;15.90;1.00;;;;;;5063347;28;19915;-82
2022/05/30 06:33:36;;;;;;;;;;;15.80;1.00;;;;;;5064135;28;19932;-82
2022/05/30 06:36:03;;;;;;;;;;;15.80;1.00;;;;;;5081283;28;19908;-81
2022/05/30 06:38:28;;;;;;;;;;;15.80;1.00;;;;;;5080990;28;20273;-82
2022/05/30 06:40:54;;;;;;;;;;;16.00;1.00;;;;;;5063419;28;19920;-82
2022/05/30 06:43:19;;;;;;;;;;;16.10;1.00;;;;;;5063569;28;20391;-82
2022/05/30 06:45:48;;;;;;;;;;;16.20;1.00;;;;;;5063576;28;19924;-82
2022/05/30 06:48:14;;;;;;;;;;;16.30;1.00;;;;;;5062999;28;19909;-81
2022/05/30 06:50:39;;;;;;;;;;;16.30;99.90;;;;;;5081241;28;20007;-81
2022/05/30 06:53:06;;;;;;;;;;;16.50;99.90;;;;;;5063717;28;19909;-82
2022/05/30 06:55:32;;;;;;;;;;;16.60;99.90;;;;;;5081213;28;20002;-81
2022/05/30 06:58:12;;;;;;;;;;;16.70;99.90;;;;;;5081272;28;20411;-81
2022/05/30 07:00:38;;;;;;;;;;;16.90;99.90;;;;;;5062682;28;19969;-81
2022/05/30 07:03:03;;;;;;;;;;;17.10;99.90;;;;;;5063147;28;20349;-82
2022/05/30 07:05:29;;;;;;;;;;;17.30;99.90;;;;;;5080317;28;19908;-82
2022/05/30 07:07:56;;;;;;;;;;;17.40;99.90;;;;;;5061844;28;20379;-81
2022/05/30 07:10:22;;;;;;;;;;;17.50;99.90;;;;;;5079734;28;19919;-82
2022/05/30 07:12:48;;;;;;;;;;;17.70;99.90;;;;;;5080232;28;19908;-81
2022/05/30 07:15:13;;;;;;;;;;;17.90;99.90;;;;;;5062630;28;20268;-82
2022/05/30 07:17:39;;;;;;;;;;;18.70;99.90;;;;;;5062351;28;19999;-82
2022/05/30 07:20:04;;;;;;;;;;;19.50;99.90;;;;;;5081194;28;19932;-82
2022/05/30 07:22:30;;;;;;;;;;;20.10;99.90;;;;;;5082856;28;19915;-82
2022/05/30 07:24:55;;;;;;;;;;;20.30;99.90;;;;;;5063133;28;19974;-82
2022/05/30 07:27:23;;;;;;;;;;;20.50;99.90;;;;;;5062457;28;19919;-82
2022/05/30 07:29:49;;;;;;;;;;;21.50;99.90;;;;;;5063705;28;19908;-82
2022/05/30 07:32:14;;;;;;;;;;;21.60;99.90;;;;;;5064126;28;19930;-82
2022/05/30 07:34:40;;;;;;;;;;;23.10;99.90;;;;;;5063590;28;19908;-83
2022/05/30 07:37:06;;;;;;;;;;;26.40;99.90;;;;;;5079063;28;19912;-83
2022/05/30 07:39:35;;;;;;;;;;;26.40;99.90;;;;;;5056586;28;19909;-83
2022/05/30 07:42:00;;;;;;;;;;;28.00;99.90;;;;;;5041753;28;19909;-83
2022/05/30 07:44:25;;;;;;;;;;;29.90;99.90;;;;;;5058746;28;19919;-83
2022/05/30 07:46:51;;;;;;;;;;;28.40;99.90;;;;;;5058646;28;19913;-83
2022/05/30 07:49:16;;;;;;;;;;;27.70;99.90;;;;;;5041560;28;19909;-83
2022/05/30 07:51:44;;;;;;;;;;;26.90;99.90;;;;;;5041176;28;19954;-83
2022/05/30 07:54:09;;;;;;;;;;;26.60;99.90;;;;;;5040958;28;19909;-83
2022/05/30 07:56:36;;;;;;;;;;;27.00;99.90;;;;;;5061162;28;20026;-82
2022/05/30 07:59:01;;;;;;;;;;;30.30;99.90;;;;;;5042939;28;19917;-82
2022/05/30 08:01:27;;;;;;;;;;;32.50;99.90;;;;;;5042822;28;20372;-82
2022/05/30 08:03:52;;;;;;;;;;;31.80;99.90;;;;;;5060803;28;19979;-82
2022/05/30 08:06:20;;;;;;;;;;;30.00;99.90;;;;;;5060239;28;19931;-82
2022/05/30 08:08:45;;;;;;;;;;;28.40;99.90;;;;;;5059409;28;19968;-82
2022/05/30 08:11:11;;;;;;;;;;;27.20;99.90;;;;;;5062349;28;19913;-81
2022/05/30 08:13:37;;;;;;;;;;;26.10;99.90;;;;;;5061081;28;20011;-81
2022/05/30 08:16:03;;;;;;;;;;;25.20;99.90;;;;;;5060746;28;20368;-81
2022/05/30 08:18:29;;;;;;;;;;;24.10;99.90;;;;;;5043055;28;19913;-81
2022/05/30 08:20:54;;;;;;;;;;;23.40;99.90;;;;;;5060762;28;19980;-81
2022/05/30 08:23:20;;;;;;;;;;;22.70;99.90;;;;;;5060884;28;19916;-81
2022/05/30 08:25:47;;;;;;;;;;;22.10;99.90;;;;;;5042815;28;19923;-81
2022/05/30 08:28:13;;;;;;;;;;;21.70;99.90;;;;;;5043044;28;19924;-81
2022/05/30 08:30:38;;;;;;;;;;;21.40;99.90;;;;;;5044133;28;19909;-81
2022/05/30 08:33:09;;;;;;;;;;;21.20;99.90;;;;;;5060048;28;20025;-81
2022/05/30 08:35:36;;;;;;;;;;;21.10;99.90;;;;;;5042886;28;19924;-81
2022/05/30 08:38:01;;;;;;;;;;;21.00;99.90;;;;;;5046060;28;19917;-81
2022/05/30 08:43:16;;;;;;;;;;;20.90;99.90;;;;;;5084445;28;19931;-81
2022/05/30 08:45:44;;;;;;;;;;;20.80;99.90;;;;;;5067445;28;19909;-82
2022/05/30 08:48:15;;;;;;;;;;;20.60;99.90;;;;;;5066795;28;19923;-81
2022/05/30 08:50:40;;;;;;;;;;;20.60;99.90;;;;;;5084592;28;19912;-81
2022/05/30 08:53:08;;;;;;;;;;;20.60;99.90;;;;;;5085522;28;19983;-81
2022/05/30 08:55:45;;;;;;;;;;;20.70;99.90;;;;;;5066648;28;19934;-81
2022/05/30 08:58:10;;;;;;;;;;;20.60;99.90;;;;;;5066257;28;19917;-81
2022/05/30 09:00:56;;;;;;;;;;;20.80;99.90;;;;;;5084443;28;19913;-82
2022/05/30 09:03:41;;;;;;;;;;;20.80;99.90;;;;;;5084522;28;19909;-82
2022/05/30 09:06:20;;;;;;;;;;;20.80;99.90;;;;;;5084941;28;19915;-80
2022/05/30 09:08:48;;;;;;;;;;;20.70;99.90;;;;;;5084338;28;20020;-80
2022/05/30 09:11:32;;;;;;;;;;;20.50;99.90;;;;;;5084089;28;19916;-80
2022/05/30 09:14:00;;;;;;;;;;;20.50;99.90;;;;;;5063794;28;19909;-80
2022/05/30 09:16:28;;;;;;;;;;;20.50;99.90;;;;;;5064469;28;20319;-80
2022/05/30 09:18:55;;;;;;;;;;;20.30;99.90;;;;;;5082209;28;19920;-80
2022/05/30 09:21:21;;;;;;;;;;;20.20;99.90;;;;;;5063123;28;19914;-79
2022/05/30 09:23:47;;;;;;;;;;;19.90;99.90;;;;;;5063354;28;20013;-80
2022/05/30 09:26:16;;;;;;;;;;;19.80;99.90;;;;;;5081254;28;19920;-80
2022/05/30 09:28:42;;;;;;;;;;;19.60;99.90;;;;;;5081733;28;19922;-80
2022/05/30 09:31:20;;;;;;;;;;;19.50;99.90;;;;;;5063285;28;19909;-79
2022/05/30 09:33:56;;;;;;;;;;;19.20;99.90;;;;;;5081714;28;19908;-80
2022/05/30 09:36:29;;;;;;;;;;;19.20;99.90;;;;;;5063625;28;20345;-80
2022/05/30 09:39:00;;;;;;;;;;;19.20;99.90;;;;;;5081204;28;19912;-80
2022/05/30 09:41:25;;;;;;;;;;;19.10;99.90;;;;;;5043713;28;19951;-80
2022/05/30 09:43:55;;;;;;;;;;;19.00;99.90;;;;;;5061080;28;19913;-80
2022/05/30 09:46:24;;;;;;;;;;;19.20;99.90;;;;;;5060870;28;19920;-80
2022/05/30 09:49:01;;;;;;;;;;;19.50;99.90;;;;;;5060285;28;19976;-80
2022/05/30 09:51:31;;;;;;;;;;;20.00;99.90;;;;;;5061155;28;19939;-80
2022/05/30 09:53:56;;;;;;;;;;;20.60;99.90;;;;;;5060983;28;19924;-80
2022/05/30 09:56:23;;;;;;;;;;;21.10;99.90;;;;;;5061089;28;20353;-81
2022/05/30 09:58:49;;;;;;;;;;;21.80;99.90;;;;;;5043185;28;19913;-81
2022/05/30 10:01:34;;;;;;;;;;;22.00;99.90;;;;;;5043186;28;20075;-81
2022/05/30 10:04:13;;;;;;;;;;;22.40;99.90;;;;;;5061542;28;19909;-80
2022/05/30 10:06:39;;;;;;;;;;;22.90;99.90;;;;;;5060502;28;19944;-81
2022/05/30 10:09:22;;;;;;;;;;;23.80;99.90;;;;;;5059727;28;19932;-81
2022/05/30 10:11:55;;;;;;;;;;;24.30;99.90;;;;;;5061770;28;20039;-80
2022/05/30 10:14:25;;;;;;;;;;;24.90;99.90;;;;;;5046002;28;19913;-80
2022/05/30 10:16:53;;;;;;;;;;;26.00;99.90;;;;;;5064395;28;19912;-81
2022/05/30 10:19:23;;;;;;;;;;;27.90;99.90;;;;;;5064222;28;19916;-81
2022/05/30 10:28:15;;;;;;;;;;;32.70;99.90;;;;;;5064963;28;19992;-82
2022/05/30 10:30:58;;;;;;;;;;;33.00;99.90;;;;;;5065066;28;19951;-82
2022/05/30 10:33:37;;;;;;;;;;;33.00;99.90;;;;;;5047105;28;19916;-82
2022/05/30 10:36:09;;;;;;;;;;;34.00;99.90;;;;;;5047783;28;19909;-82
2022/05/30 10:38:51;;;;;;;;;;;34.50;99.90;;;;;;5048821;28;19912;-83
2022/05/30 10:41:35;;;;;;;;;;;35.30;99.90;;;;;;5066176;28;19909;-82
2022/05/30 10:44:06;;;;;;;;;;;36.70;99.90;;;;;;5048293;28;19912;-82
2022/05/30 10:46:58;;;;;;;;;;;36.80;99.90;;;;;;5047572;28;19909;-83
2022/05/30 10:49:26;;;;;;;;;;;37.60;99.90;;;;;;5045121;28;19913;-82
2022/05/30 10:51:58;;;;;;;;;;;35.40;99.90;;;;;;5063306;28;19909;-82
2022/05/30 10:54:29;;;;;;;;;;;33.90;99.90;;;;;;5063997;28;19908;-82
2022/05/30 10:57:00;;;;;;;;;;;32.90;98.40;;;;;;5046032;28;19909;-82
2022/05/30 10:59:44;;;;;;;;;;;31.90;95.20;;;;;;5063860;28;20351;-82
2022/05/30 11:02:16;;;;;;;;;;;30.90;92.00;;;;;;5064020;28;19962;-82
2022/05/30 11:05:06;;;;;;;;;;;30.50;91.20;;;;;;5064086;28;20277;-82
2022/05/30 11:07:38;;;;;;;;;;;30.00;90.00;;;;;;5045699;28;19935;-82
2022/05/30 11:10:17;;;;;;;;;;;28.90;84.60;;;;;;5045967;28;19972;-82
2022/05/30 11:12:45;;;;;;;;;;;28.40;83.40;;;;;;5063006;28;19984;-81
2022/05/30 11:15:15;;;;;;;;;;;27.60;79.60;;;;;;5045269;28;19916;-81
2022/05/30 11:17:48;;;;;;;;;;;27.20;78.60;;;;;;5045739;28;19919;-81
2022/05/30 11:20:16;;;;;;;;;;;27.00;78.40;;;;;;5045883;28;19909;-81
2022/05/30 11:22:48;;;;;;;;;;;26.90;79.10;;;;;;5046413;28;19916;-81
2022/05/30 11:25:26;;;;;;;;;;;26.30;76.50;;;;;;5049414;28;20392;-80
2022/05/30 11:28:07;;;;;;;;;;;26.30;78.30;;;;;;5050760;28;19920;-80
2022/05/30 11:30:51;;;;;;;;;;;26.10;77.60;;;;;;5063703;28;19909;-81
2022/05/30 11:33:39;;;;;;;;;;;25.40;74.40;;;;;;5046037;28;19913;-81
2022/05/30 11:36:23;;;;;;;;;;;25.50;77.40;;;;;;5044750;28;19909;-80
2022/05/30 11:38:55;;;;;;;;;;;25.40;74.60;;;;;;5044867;28;19972;-81
2022/05/30 11:41:20;;;;;;;;;;;25.50;76.10;;;;;;5065553;28;19955;-81
2022/05/30 11:44:05;;;;;;;;;;;25.20;75.70;;;;;;5065050;28;19909;-81
2022/05/30 11:46:39;;;;;;;;;;;25.00;74.80;;;;;;5064929;28;20608;-81
2022/05/30 11:49:24;;;;;;;;;;;24.40;70.10;;;;;;5064422;28;19913;-81
2022/05/30 11:52:04;;;;;;;;;;;24.20;67.90;;;;;;5064440;28;20320;-81
2022/05/30 11:54:45;;;;;;;;;;;24.10;66.80;;;;;;5065159;28;20380;-81
2022/05/30 11:57:28;;;;;;;;;;;24.20;65.80;;;;;;5063983;28;20303;-81
2022/05/30 12:00:09;;;;;;;;;;;24.30;66.40;;;;;;5064397;28;20342;-80
2022/05/30 12:02:53;;;;;;;;;;;24.40;67.00;;;;;;5081886;28;19908;-80
2022/05/30 12:05:19;;;;;;;;;;;24.30;67.10;;;;;;5081739;28;19958;-80
2022/05/30 12:07:50;;;;;;;;;;;24.60;69.80;;;;;;5064862;28;19916;-81
2022/05/30 12:10:35;;;;;;;;;;;24.70;71.90;;;;;;5063695;28;19908;-81
2022/05/30 12:13:12;;;;;;;;;;;25.00;74.80;;;;;;5063046;28;19968;-81
2022/05/30 12:15:50;;;;;;;;;;;25.30;75.20;;;;;;5082394;28;19950;-81
2022/05/30 12:24:19;;;;;;;;;;;26.70;82.50;;;;;;5083350;28;20268;-81
2022/05/30 12:26:54;;;;;;;;;;;26.70;81.30;;;;;;5082692;28;19909;-81
2022/05/30 12:29:38;;;;;;;;;;;25.30;72.10;;;;;;5064392;28;19975;-81
2022/05/30 12:32:10;;;;;;;;;;;24.90;69.30;;;;;;5064917;28;19912;-81
2022/05/30 12:37:44;;;;;;;;;;;24.90;70.40;;;;;;5076086;28;19908;-81
2022/05/30 12:40:12;;;;;;;;;;;24.70;69.00;;;;;;5063783;28;19909;-81
2022/05/30 12:42:43;;;;;;;;;;;24.90;68.40;;;;;;5063724;28;19958;-81
2022/05/30 12:45:14;;;;;;;;;;;24.90;69.20;;;;;;5064286;28;19915;-81
2022/05/30 12:47:47;;;;;;;;;;;25.00;67.10;;;;;;5082387;28;19920;-81
2022/05/30 12:50:15;;;;;;;;;;;24.70;65.70;;;;;;5064459;28;19934;-81
2022/05/30 12:52:52;;;;;;;;;;;24.40;64.10;;;;;;5063908;28;19912;-81
2022/05/30 12:55:30;;;;;;;;;;;24.30;64.60;;;;;;5063958;28;19909;-82
2022/05/30 12:57:55;;;;;;;;;;;24.70;68.20;;;;;;5064343;28;19908;-81
2022/05/30 13:00:21;;;;;;;;;;;25.60;71.30;;;;;;5063820;28;19943;-81
2022/05/30 13:02:49;;;;;;;;;;;26.30;74.30;;;;;;5082126;28;20045;-81
2022/05/30 13:05:26;;;;;;;;;;;26.30;73.70;;;;;;5081983;28;19923;-81
2022/05/30 13:07:51;;;;;;;;;;;27.20;77.30;;;;;;5081347;28;19916;-81
2022/05/30 13:10:17;;;;;;;;;;;27.80;78.80;;;;;;5082879;28;19959;-82
2022/05/30 13:12:52;;;;;;;;;;;27.90;78.00;;;;;;5064772;28;19916;-81
2022/05/30 13:15:22;;;;;;;;;;;27.60;75.70;;;;;;5064818;28;19915;-82
2022/05/30 13:17:57;;;;;;;;;;;27.20;72.40;;;;;;5064289;28;20009;-82
2022/05/30 13:20:38;;;;;;;;;;;26.80;70.20;;;;;;5064279;28;19915;-81
2022/05/30 13:23:04;;;;;;;;;;;26.40;69.10;;;;;;5064838;28;20050;-81
2022/05/30 13:25:32;;;;;;;;;;;26.40;68.80;;;;;;5068363;28;19969;-82
2022/05/30 13:28:11;;;;;;;;;;;26.40;67.90;;;;;;5067546;28;20021;-82
2022/05/30 13:30:38;;;;;;;;;;;26.50;68.60;;;;;;5085256;28;19962;-81
2022/05/30 13:33:14;;;;;;;;;;;25.90;64.70;;;;;;5086253;28;20356;-82
2022/05/30 13:35:41;;;;;;;;;;;25.70;63.20;;;;;;5067911;28;19909;-82
2022/05/30 13:38:09;;;;;;;;;;;25.50;61.70;;;;;;5067602;28;20262;-82
2022/05/30 13:40:35;;;;;;;;;;;25.50;62.40;;;;;;5068358;28;20276;-82
2022/05/30 13:43:01;;;;;;;;;;;25.40;61.50;;;;;;5085644;28;19919;-82
2022/05/30 13:45:28;;;;;;;;;;;25.30;63.40;;;;;;5067951;28;19912;-81
2022/05/30 13:48:06;;;;;;;;;;;25.20;64.30;;;;;;5085604;28;19959;-81
2022/05/30 13:50:39;;;;;;;;;;;25.10;64.40;;;;;;5085165;28;19916;-82
2022/05/30 13:53:06;;;;;;;;;;;25.20;65.40;;;;;;5067785;28;20284;-81
2022/05/30 13:55:31;;;;;;;;;;;25.20;65.50;;;;;;5067585;28;19919;-82
2022/05/30 13:58:03;;;;;;;;;;;25.30;65.90;;;;;;5068093;28;19909;-81
2022/05/30 14:00:33;;;;;;;;;;;25.30;65.80;;;;;;5069486;28;19935;-81
2022/05/30 14:02:58;;;;;;;;;;;25.20;64.80;;;;;;5066844;28;19908;-81
2022/05/30 14:05:35;;;;;;;;;;;24.90;61.80;;;;;;5084884;28;19908;-81
2022/05/30 14:08:05;;;;;;;;;;;24.90;61.30;;;;;;5085212;28;20528;-81
2022/05/30 14:10:35;;;;;;;;;;;24.90;61.40;;;;;;5065102;28;19912;-81
2022/05/30 14:13:01;;;;;;;;;;;24.80;62.10;;;;;;5066802;28;19912;-81
2022/05/30 14:15:28;;;;;;;;;;;24.80;60.30;;;;;;5066443;28;20011;-81
2022/05/30 14:17:54;;;;;;;;;;;24.70;59.50;;;;;;5066530;28;20003;-81
2022/05/30 14:20:19;;;;;;;;;;;24.30;57.60;;;;;;5066668;28;20581;-82
2022/05/30 14:22:57;;;;;;;;;;;24.00;57.00;;;;;;5083637;28;19909;-81
2022/05/30 14:25:49;;;;;;;;;;;23.70;56.20;;;;;;5084058;28;19916;-81
2022/05/30 14:28:26;;;;;;;;;;;23.10;54.20;;;;;;5064169;28;19912;-82
2022/05/30 14:30:51;;;;;;;;;;;22.70;52.50;;;;;;5066343;28;19916;-81
2022/05/30 14:33:17;;;;;;;;;;;22.40;51.80;;;;;;5066397;28;20006;-80
2022/05/30 14:35:43;;;;;;;;;;;22.30;51.90;;;;;;5065611;28;19909;-81
2022/05/30 14:38:10;;;;;;;;;;;22.20;52.10;;;;;;5083818;28;19995;-81
2022/05/30 14:40:35;;;;;;;;;;;22.40;53.40;;;;;;5083469;28;19915;-81
2022/05/30 14:43:01;;;;;;;;;;;22.60;55.60;;;;;;5083050;28;19908;-81
2022/05/30 14:45:36;;;;;;;;;;;22.80;57.10;;;;;;5065054;28;19908;-80
2022/05/30 14:48:06;;;;;;;;;;;23.10;57.50;;;;;;5064755;28;19919;-81
2022/05/30 14:50:35;;;;;;;;;;;22.90;56.90;;;;;;5065735;28;19954;-81
2022/05/30 14:53:01;;;;;;;;;;;22.70;55.90;;;;;;5084019;28;19935;-81
2022/05/30 14:55:27;;;;;;;;;;;22.70;56.10;;;;;;5064910;28;19958;-81
2022/05/30 14:57:54;;;;;;;;;;;22.80;56.80;;;;;;5082482;28;19913;-83